createdAt,value
2018-06-29T00:00:13.348Z,82.28
2018-06-29T00:02:42.093Z,82.72
2018-06-29T00:05:10.755Z,82.43
2018-06-29T00:07:39.436Z,82.73
2018-06-29T00:10:08.266Z,82.73
2018-06-29T00:12:36.910Z,82.95
2018-06-29T00:15:05.840Z,83.54
2018-06-29T00:17:34.506Z,84.24
2018-06-29T00:20:03.527Z,83.13
2018-06-29T00:22:32.194Z,83.15
2018-06-29T00:25:00.897Z,83.00
2018-06-29T00:27:29.550Z,83.43
2018-06-29T00:29:58.239Z,83.23
2018-06-29T00:32:26.910Z,83.70
2018-06-29T00:34:55.831Z,84.14
2018-06-29T00:37:24.238Z,83.71
2018-06-29T00:39:52.875Z,83.38
2018-06-29T00:42:21.606Z,83.84
2018-06-29T00:44:50.286Z,84.20
2018-06-29T00:47:19.059Z,83.63
2018-06-29T00:49:47.798Z,83.99
2018-06-29T00:52:16.518Z,84.41
2018-06-29T00:54:45.209Z,84.30
2018-06-29T00:57:13.878Z,83.72
2018-06-29T00:59:42.552Z,84.13
2018-06-29T01:02:11.236Z,83.98
2018-06-29T01:04:39.992Z,83.67
2018-06-29T01:07:08.662Z,83.81
2018-06-29T01:09:37.322Z,84.25
2018-06-29T01:12:05.989Z,83.98
2018-06-29T01:14:34.687Z,83.49
2018-06-29T01:17:03.474Z,84.53
2018-06-29T01:19:33.086Z,84.04
2018-06-29T01:22:01.771Z,84.00
2018-06-29T01:24:30.571Z,83.84
2018-06-29T01:26:59.250Z,83.94
2018-06-29T01:29:27.937Z,84.30
2018-06-29T01:31:56.604Z,84.10
2018-06-29T01:34:25.316Z,84.58
2018-06-29T01:36:54.193Z,83.93
2018-06-29T01:39:22.930Z,84.46
2018-06-29T01:41:51.582Z,84.40
2018-06-29T01:44:26.298Z,84.36
2018-06-29T01:46:55.055Z,84.60
2018-06-29T01:49:23.875Z,84.76
2018-06-29T01:51:52.566Z,84.22
2018-06-29T01:54:21.278Z,84.37
2018-06-29T01:56:49.983Z,84.34
2018-06-29T01:59:18.644Z,84.64
2018-06-29T02:01:47.846Z,84.43
2018-06-29T02:04:16.496Z,84.27
2018-06-29T02:06:45.234Z,84.18
2018-06-29T02:09:14.118Z,83.92
2018-06-29T02:11:42.817Z,84.37
2018-06-29T02:14:11.539Z,84.29
2018-06-29T02:16:40.196Z,84.08
2018-06-29T02:19:08.949Z,84.59
2018-06-29T02:21:37.723Z,84.53
2018-06-29T02:24:06.611Z,84.05
2018-06-29T02:26:35.371Z,83.86
2018-06-29T02:29:04.205Z,83.90
2018-06-29T02:31:32.914Z,84.38
2018-06-29T02:34:01.625Z,83.84
2018-06-29T02:36:30.496Z,84.27
2018-06-29T02:38:59.122Z,84.25
2018-06-29T02:41:27.938Z,83.96
2018-06-29T02:43:56.693Z,84.12
2018-06-29T02:46:25.446Z,84.29
2018-06-29T02:48:54.083Z,84.15
2018-06-29T02:51:28.463Z,84.23
2018-06-29T02:56:25.842Z,83.17
2018-06-29T02:58:54.506Z,82.79
2018-06-29T03:01:23.341Z,82.55
2018-06-29T03:03:51.964Z,82.68
2018-06-29T03:06:20.606Z,83.24
2018-06-29T03:08:49.255Z,83.54
2018-06-29T03:11:17.871Z,82.65
2018-06-29T03:13:46.476Z,82.38
2018-06-29T03:16:15.128Z,82.93
2018-06-29T03:18:43.709Z,82.42
2018-06-29T03:21:12.359Z,81.98
2018-06-29T03:23:41.135Z,82.10
2018-06-29T03:26:10.039Z,81.22
2018-06-29T03:28:38.668Z,81.22
2018-06-29T03:31:07.288Z,80.83
2018-06-29T03:33:35.965Z,80.74
2018-06-29T03:36:04.634Z,80.49
2018-06-29T03:38:33.244Z,80.44
2018-06-29T03:41:01.884Z,80.29
2018-06-29T03:43:30.562Z,79.63
2018-06-29T03:45:59.196Z,80.44
2018-06-29T03:48:27.850Z,80.21
2018-06-29T03:50:56.495Z,79.75
2018-06-29T03:53:26.039Z,79.70
2018-06-29T03:55:54.617Z,80.14
2018-06-29T03:58:23.264Z,79.70
2018-06-29T04:00:51.914Z,80.34
2018-06-29T04:03:20.609Z,80.30
2018-06-29T04:05:49.189Z,80.47
2018-06-29T04:08:17.834Z,79.80
2018-06-29T04:10:46.455Z,79.41
2018-06-29T04:13:15.060Z,78.92
2018-06-29T04:15:43.732Z,79.10
2018-06-29T04:18:12.350Z,78.40
2018-06-29T04:20:40.991Z,78.68
2018-06-29T04:23:09.681Z,78.33
2018-06-29T04:25:38.347Z,78.25
2018-06-29T04:28:07.041Z,77.90
2018-06-29T04:30:35.660Z,77.61
2018-06-29T04:33:04.255Z,77.53
2018-06-29T04:35:33.853Z,77.84
2018-06-29T04:38:02.495Z,77.60
2018-06-29T04:40:31.777Z,77.05
2018-06-29T04:43:00.480Z,77.09
2018-06-29T04:45:29.604Z,77.18
2018-06-29T04:47:59.097Z,77.62
2018-06-29T04:50:27.718Z,76.87
2018-06-29T04:52:56.322Z,75.93
2018-06-29T04:55:24.997Z,75.16
2018-06-29T04:57:53.638Z,75.35
2018-06-29T05:00:22.351Z,75.52
2018-06-29T05:02:51.037Z,75.37
2018-06-29T05:05:19.722Z,75.84
2018-06-29T05:07:48.309Z,75.34
2018-06-29T05:10:17.280Z,74.85
2018-06-29T05:12:45.998Z,75.18
2018-06-29T05:15:14.801Z,75.96
2018-06-29T05:17:43.469Z,75.35
2018-06-29T05:20:12.181Z,75.28
2018-06-29T05:22:40.848Z,76.10
2018-06-29T05:25:09.526Z,75.54
2018-06-29T05:27:38.520Z,76.16
2018-06-29T05:30:07.954Z,76.70
2018-06-29T05:32:36.616Z,75.74
2018-06-29T05:35:05.430Z,76.02
2018-06-29T05:37:34.678Z,76.39
2018-06-29T05:40:03.385Z,76.53
2018-06-29T05:42:32.212Z,76.83
2018-06-29T05:45:00.936Z,76.09
2018-06-29T05:47:29.759Z,76.86
2018-06-29T05:49:58.456Z,76.36
2018-06-29T05:52:27.237Z,76.02
2018-06-29T05:54:55.955Z,76.37
2018-06-29T05:57:24.656Z,75.75
2018-06-29T05:59:53.285Z,75.31
2018-06-29T06:02:22.051Z,75.49
2018-06-29T06:04:50.738Z,75.15
2018-06-29T06:07:19.471Z,74.29
2018-06-29T06:09:48.242Z,73.59
2018-06-29T06:12:16.834Z,73.33
2018-06-29T06:14:46.111Z,72.11
2018-06-29T06:17:15.400Z,71.20
2018-06-29T06:19:54.976Z,70.47
2018-06-29T06:22:23.644Z,69.47
2018-06-29T06:24:52.312Z,68.94
2018-06-29T06:27:21.055Z,68.43
2018-06-29T06:29:49.691Z,67.53
2018-06-29T06:32:18.395Z,67.96
2018-06-29T06:34:47.058Z,67.63
2018-06-29T06:37:15.694Z,68.31
2018-06-29T06:39:44.340Z,68.08
2018-06-29T06:42:13.046Z,68.02
2018-06-29T06:44:42.163Z,68.87
2018-06-29T06:47:10.915Z,68.29
2018-06-29T06:49:40.504Z,68.55
2018-06-29T06:52:09.321Z,67.70
2018-06-29T06:54:38.098Z,68.33
2018-06-29T06:57:06.887Z,67.57
2018-06-29T06:59:35.623Z,66.58
2018-06-29T07:02:04.459Z,65.88
2018-06-29T07:04:33.136Z,66.18
2018-06-29T07:07:01.865Z,66.84
2018-06-29T07:09:30.638Z,65.78
2018-06-29T07:11:59.418Z,64.70
2018-06-29T07:14:28.089Z,64.41
2018-06-29T07:16:56.762Z,64.66
2018-06-29T07:19:25.471Z,63.73
2018-06-29T07:21:54.169Z,63.57
2018-06-29T07:24:23.191Z,63.74
2018-06-29T07:26:51.841Z,64.00
2018-06-29T07:29:20.538Z,64.47
2018-06-29T07:31:49.188Z,63.35
2018-06-29T07:34:17.969Z,62.68
2018-06-29T07:36:46.915Z,62.53
2018-06-29T07:39:15.674Z,62.15
2018-06-29T07:41:44.883Z,61.90
2018-06-29T07:44:13.561Z,62.22
2018-06-29T07:46:42.267Z,61.90
2018-06-29T07:49:10.918Z,60.24
2018-06-29T07:51:39.601Z,60.11
2018-06-29T07:54:08.245Z,60.79
2018-06-29T07:56:36.965Z,60.52
2018-06-29T07:59:05.689Z,60.43
2018-06-29T08:01:34.382Z,60.51
2018-06-29T08:04:03.067Z,60.77
2018-06-29T08:06:31.754Z,61.46
2018-06-29T08:09:00.430Z,62.19
2018-06-29T08:11:29.154Z,63.02
2018-06-29T08:13:57.807Z,63.05
2018-06-29T08:16:26.466Z,62.59
2018-06-29T08:18:55.187Z,61.73
2018-06-29T08:21:23.868Z,61.28
2018-06-29T08:23:52.573Z,60.94
2018-06-29T08:26:23.898Z,60.97
2018-06-29T08:28:52.847Z,61.21
2018-06-29T08:31:21.583Z,61.81
2018-06-29T08:33:50.893Z,60.80
2018-06-29T08:36:19.588Z,61.34
2018-06-29T08:38:48.336Z,61.45
2018-06-29T08:41:17.112Z,62.06
2018-06-29T08:43:45.809Z,61.78
2018-06-29T08:46:14.473Z,61.02
2018-06-29T08:48:43.154Z,60.54
2018-06-29T08:51:11.911Z,60.58
2018-06-29T08:53:40.525Z,60.25
2018-06-29T08:56:09.278Z,60.47
2018-06-29T08:58:37.911Z,62.27
2018-06-29T09:01:06.926Z,62.78
2018-06-29T09:03:35.561Z,63.58
2018-06-29T09:06:04.265Z,63.22
2018-06-29T09:08:33.009Z,64.30
2018-06-29T09:11:01.814Z,64.56
2018-06-29T09:13:30.432Z,64.34
2018-06-29T09:15:59.251Z,64.19
2018-06-29T09:18:27.940Z,65.34
2018-06-29T09:20:56.631Z,65.45
2018-06-29T09:23:25.274Z,65.18
2018-06-29T09:25:53.948Z,65.58
2018-06-29T09:28:22.646Z,66.23
2018-06-29T09:30:51.273Z,65.53
2018-06-29T09:33:19.977Z,65.98
2018-06-29T09:35:48.668Z,64.89
2018-06-29T09:38:17.328Z,64.36
2018-06-29T09:40:46.085Z,65.72
2018-06-29T09:43:14.858Z,66.16
2018-06-29T09:45:43.659Z,67.24
2018-06-29T09:48:12.390Z,68.22
2018-06-29T09:50:41.126Z,67.90
2018-06-29T09:53:09.805Z,69.06
2018-06-29T09:55:38.509Z,68.48
2018-06-29T09:58:07.200Z,68.56
2018-06-29T10:00:35.890Z,67.52
2018-06-29T10:03:04.625Z,67.64
2018-06-29T10:05:33.301Z,66.60
2018-06-29T10:08:02.051Z,65.83
2018-06-29T10:10:30.763Z,64.07
2018-06-29T10:12:59.570Z,63.47
2018-06-29T10:15:28.234Z,63.65
2018-06-29T10:17:57.821Z,62.92
2018-06-29T10:20:26.553Z,62.97
2018-06-29T10:22:55.290Z,63.64
2018-06-29T10:25:24.244Z,64.55
2018-06-29T10:27:52.851Z,64.82
2018-06-29T10:30:21.533Z,62.73
2018-06-29T10:32:50.250Z,62.51
2018-06-29T10:35:18.895Z,63.62
2018-06-29T10:37:47.556Z,63.02
2018-06-29T10:40:16.274Z,64.24
2018-06-29T10:42:44.983Z,64.62
2018-06-29T10:45:13.672Z,65.32
2018-06-29T10:47:43.601Z,64.61
2018-06-29T10:50:12.406Z,64.98
2018-06-29T10:52:41.467Z,64.30
2018-06-29T10:55:10.212Z,64.85
2018-06-29T10:57:38.966Z,64.41
2018-06-29T11:00:07.733Z,62.67
2018-06-29T11:02:36.417Z,61.56
2018-06-29T11:05:05.315Z,62.20
2018-06-29T11:07:34.025Z,60.86
2018-06-29T11:10:02.769Z,60.76
2018-06-29T11:12:31.541Z,59.68
2018-06-29T11:15:00.279Z,59.88
2018-06-29T11:20:02.738Z,57.05
2018-06-29T11:22:31.470Z,56.81
2018-06-29T11:25:00.933Z,55.73
2018-06-29T11:27:29.633Z,54.96
2018-06-29T11:29:59.378Z,55.29
2018-06-29T11:32:28.118Z,52.99
2018-06-29T11:34:56.785Z,53.80
2018-06-29T11:37:25.570Z,54.92
2018-06-29T11:39:54.349Z,54.11
2018-06-29T11:42:22.985Z,54.60
2018-06-29T11:44:51.879Z,54.32
2018-06-29T11:47:20.557Z,55.26
2018-06-29T11:49:49.256Z,55.01
2018-06-29T11:52:17.934Z,56.17
2018-06-29T11:54:46.622Z,55.43
2018-06-29T11:57:15.303Z,55.73
2018-06-29T11:59:44.036Z,56.23
2018-06-29T12:02:12.801Z,56.41
2018-06-29T12:04:41.429Z,56.33
2018-06-29T12:07:10.157Z,57.15
2018-06-29T12:09:38.785Z,56.76
2018-06-29T12:12:07.429Z,56.89
2018-06-29T12:14:36.131Z,56.43
2018-06-29T12:17:04.772Z,56.60
2018-06-29T12:19:33.504Z,56.30
2018-06-29T12:22:02.770Z,56.23
2018-06-29T12:24:31.474Z,54.91
2018-06-29T12:27:00.415Z,55.54
2018-06-29T12:29:29.166Z,55.18
2018-06-29T12:31:57.898Z,57.48
2018-06-29T12:34:26.671Z,57.81
2018-06-29T12:36:55.365Z,58.06
2018-06-29T12:39:24.059Z,58.01
2018-06-29T12:41:52.793Z,58.21
2018-06-29T12:44:21.613Z,58.32
2018-06-29T12:46:50.399Z,57.82
2018-06-29T12:49:19.094Z,57.93
2018-06-29T12:51:47.878Z,57.11
2018-06-29T12:54:16.598Z,57.54
2018-06-29T12:56:45.355Z,56.99
2018-06-29T12:59:14.393Z,57.38
2018-06-29T13:01:43.134Z,57.67
2018-06-29T13:04:11.846Z,56.83
2018-06-29T13:06:40.537Z,58.18
2018-06-29T13:09:10.491Z,58.96
2018-06-29T13:11:39.109Z,58.91
2018-06-29T13:14:07.822Z,59.50
2018-06-29T13:16:36.674Z,58.66
2018-06-29T13:19:05.389Z,58.36
2018-06-29T13:21:34.050Z,57.76
2018-06-29T13:24:03.662Z,57.40
2018-06-29T13:26:32.391Z,56.91
2018-06-29T13:29:01.980Z,56.32
2018-06-29T13:31:30.689Z,56.91
2018-06-29T13:33:59.459Z,57.25
2018-06-29T13:36:28.221Z,57.14
2018-06-29T13:38:58.603Z,57.27
2018-06-29T13:41:27.227Z,56.60
2018-06-29T13:43:55.971Z,56.05
2018-06-29T13:46:24.596Z,56.28
2018-06-29T13:48:53.890Z,56.69
2018-06-29T13:51:22.591Z,56.24
2018-06-29T13:53:51.540Z,56.52
2018-06-29T13:56:20.173Z,56.51
2018-06-29T13:58:49.091Z,56.24
2018-06-29T14:01:17.874Z,57.17
2018-06-29T14:03:46.531Z,58.25
2018-06-29T14:06:15.318Z,57.60
2018-06-29T14:08:43.931Z,57.27
2018-06-29T14:11:12.622Z,57.15
2018-06-29T14:13:41.272Z,57.27
2018-06-29T14:16:09.957Z,57.66
2018-06-29T14:18:39.066Z,58.41
2018-06-29T14:21:07.842Z,57.75
2018-06-29T14:23:36.467Z,56.62
2018-06-29T14:26:05.829Z,56.76
2018-06-29T14:28:34.512Z,56.32
2018-06-29T14:31:04.553Z,56.05
2018-06-29T14:33:33.259Z,55.23
2018-06-29T14:36:01.908Z,55.27
2018-06-29T14:38:30.654Z,54.67
2018-06-29T14:40:59.418Z,54.34
2018-06-29T14:43:28.066Z,54.87
2018-06-29T14:45:56.741Z,53.94
2018-06-29T14:48:26.252Z,53.67
2018-06-29T14:50:54.881Z,53.57
2018-06-29T14:53:23.546Z,53.35
2018-06-29T14:55:52.203Z,52.91
2018-06-29T14:58:20.951Z,52.95
2018-06-29T15:00:49.600Z,53.03
2018-06-29T15:03:18.356Z,53.65
2018-06-29T15:05:46.989Z,53.47
2018-06-29T15:08:15.633Z,53.71
2018-06-29T15:10:44.244Z,53.54
2018-06-29T15:13:12.925Z,53.78
2018-06-29T15:15:41.619Z,53.73
2018-06-29T15:18:10.260Z,52.44
2018-06-29T15:20:38.901Z,52.88
2018-06-29T15:23:07.654Z,52.77
2018-06-29T15:25:36.557Z,53.26
2018-06-29T15:28:06.322Z,53.87
2018-06-29T15:30:34.925Z,54.90
2018-06-29T15:33:03.552Z,55.72
2018-06-29T15:35:32.192Z,56.17
2018-06-29T15:38:00.874Z,55.86
2018-06-29T15:40:29.505Z,56.03
2018-06-29T15:42:58.155Z,56.18
2018-06-29T15:45:26.924Z,56.47
2018-06-29T15:47:56.459Z,57.54
2018-06-29T15:50:25.180Z,58.12
2018-06-29T15:52:54.754Z,58.38
2018-06-29T15:55:23.552Z,58.31
2018-06-29T15:57:52.232Z,59.33
2018-06-29T16:00:20.917Z,59.45
2018-06-29T16:02:49.611Z,60.14
2018-06-29T16:05:18.218Z,60.61
2018-06-29T16:07:46.956Z,61.65
2018-06-29T16:10:15.591Z,62.21
2018-06-29T16:12:44.246Z,62.26
2018-06-29T16:15:12.905Z,63.78
2018-06-29T16:17:41.570Z,64.17
2018-06-29T16:20:10.338Z,64.17
2018-06-29T16:22:39.013Z,64.76
2018-06-29T16:25:09.019Z,64.67
2018-06-29T16:27:37.666Z,64.57
2018-06-29T16:30:06.586Z,63.86
2018-06-29T16:32:35.280Z,64.08
2018-06-29T16:35:03.961Z,63.61
2018-06-29T16:37:32.613Z,61.83
2018-06-29T16:40:01.248Z,56.56
2018-06-29T16:42:29.953Z,52.28
2018-06-29T16:44:58.623Z,48.36
2018-06-29T16:47:27.285Z,46.58
2018-06-29T16:49:55.938Z,45.44
2018-06-29T16:52:24.625Z,45.83
2018-06-29T16:54:53.287Z,47.53
2018-06-29T16:57:21.930Z,46.88
2018-06-29T16:59:50.634Z,45.82
2018-06-29T17:02:19.275Z,43.91
2018-06-29T17:04:47.982Z,42.96
2018-06-29T17:07:16.735Z,41.96
2018-06-29T17:09:45.452Z,42.72
2018-06-29T17:12:14.245Z,41.57
2018-06-29T17:14:42.894Z,42.01
2018-06-29T17:17:11.509Z,41.55
2018-06-29T17:22:14.274Z,46.38
2018-06-29T17:24:44.425Z,48.61
2018-06-29T17:27:13.085Z,48.92
2018-06-29T17:29:41.797Z,49.54
2018-06-29T17:32:11.185Z,52.08
2018-06-29T17:34:39.903Z,53.41
2018-06-29T17:37:08.644Z,53.02
2018-06-29T17:39:37.345Z,53.09
2018-06-29T17:42:06.051Z,54.19
2018-06-29T17:44:34.710Z,55.28
2018-06-29T17:47:03.385Z,56.50
2018-06-29T17:49:32.074Z,58.17
2018-06-29T17:52:00.767Z,58.21
2018-06-29T17:54:29.466Z,59.67
2018-06-29T17:56:58.148Z,58.81
2018-06-29T17:59:26.758Z,57.96
2018-06-29T18:01:55.426Z,58.23
2018-06-29T18:04:24.094Z,59.40
2018-06-29T18:06:52.701Z,61.04
2018-06-29T18:09:21.378Z,61.60
2018-06-29T18:11:50.081Z,62.22
2018-06-29T18:14:18.653Z,62.49
2018-06-29T18:16:47.344Z,63.62
2018-06-29T18:19:15.989Z,64.73
2018-06-29T18:21:44.695Z,65.09
2018-06-29T18:24:13.348Z,65.14
2018-06-29T18:26:42.024Z,66.17
2018-06-29T18:29:11.156Z,66.48
2018-06-29T18:31:39.841Z,66.57
2018-06-29T18:34:08.551Z,66.90
2018-06-29T18:49:45.794Z,68.76
2018-06-29T18:52:14.513Z,68.74
2018-06-29T18:54:43.219Z,68.74
2018-06-29T18:57:12.406Z,68.70
2018-06-29T18:59:41.058Z,68.93
2018-06-29T19:02:09.893Z,68.88
2018-06-29T19:14:18.858Z,70.18
2018-06-29T19:16:47.633Z,70.36
2018-06-29T19:19:16.399Z,71.04
2018-06-29T19:21:45.467Z,70.63
2018-06-29T19:24:14.353Z,70.96
2018-06-29T19:26:43.098Z,71.50
2018-06-29T19:29:12.483Z,71.53
2018-06-29T19:31:41.248Z,71.49
2018-06-29T19:34:09.986Z,71.60
2018-06-29T19:36:38.678Z,72.01
2018-06-29T19:39:08.777Z,72.01
2018-06-29T19:41:38.074Z,71.98
2018-06-29T19:44:06.836Z,72.33
2018-06-29T19:46:35.596Z,72.04
2018-06-29T19:49:04.335Z,71.88
2018-06-29T19:51:33.049Z,71.98
2018-06-29T19:54:01.866Z,72.60
2018-06-29T19:56:30.762Z,72.27
2018-06-29T19:58:59.543Z,72.60
2018-06-29T20:01:28.406Z,73.00
2018-06-29T20:03:57.112Z,72.37
2018-06-29T20:06:25.959Z,73.29
2018-06-29T20:08:55.377Z,73.07
2018-06-29T20:11:24.140Z,73.03
2018-06-29T20:13:53.079Z,73.18
2018-06-29T20:16:23.755Z,72.78
2018-06-29T20:18:53.698Z,73.06
2018-06-29T20:21:22.639Z,73.39
2018-06-29T20:23:52.711Z,73.88
2018-06-29T20:26:21.765Z,73.42
2018-06-29T20:28:50.538Z,73.60
2018-06-29T20:31:24.007Z,73.61
2018-06-29T20:33:52.763Z,73.69
2018-06-29T20:36:21.600Z,73.81
2018-06-29T20:38:50.496Z,73.98
2018-06-29T20:41:19.142Z,74.40
2018-06-29T20:43:47.839Z,74.91
2018-06-29T20:46:17.227Z,74.89
2018-06-29T20:48:45.950Z,75.05
2018-06-29T20:51:15.534Z,75.44
2018-06-29T20:53:44.306Z,75.40
2018-06-29T20:56:13.583Z,74.74
2018-06-29T20:58:42.266Z,75.39
2018-06-29T21:01:11.061Z,75.71
2018-06-29T21:03:39.791Z,75.52
2018-06-29T21:06:08.529Z,75.51
2018-06-29T21:08:37.552Z,75.05
2018-06-29T21:11:06.342Z,75.21
2018-06-29T21:13:35.007Z,74.71
2018-06-29T21:16:03.710Z,74.89
2018-06-29T21:18:32.503Z,75.48
2018-06-29T21:21:01.314Z,74.88
2018-06-29T21:23:30.045Z,75.41
2018-06-29T21:25:58.785Z,75.81
2018-06-29T21:28:27.542Z,75.04
2018-06-29T21:30:56.274Z,75.66
2018-06-29T21:33:25.857Z,75.34
2018-06-29T21:35:54.550Z,76.09
2018-06-29T21:38:23.227Z,76.12
2018-06-29T21:40:52.140Z,76.11
2018-06-29T21:43:20.809Z,75.64
2018-06-29T21:45:49.478Z,75.68
2018-06-29T21:48:18.183Z,75.89
2018-06-29T21:50:46.920Z,75.15
2018-06-29T21:53:16.039Z,75.04
2018-06-29T21:55:44.751Z,75.20
2018-06-29T21:58:13.459Z,74.32
2018-06-29T22:00:44.282Z,74.38
2018-06-29T22:05:47.787Z,74.15
2018-06-29T22:08:17.042Z,74.21
2018-06-29T22:10:45.748Z,73.73
2018-06-29T22:13:14.683Z,73.70
2018-06-29T22:15:43.306Z,73.43
2018-06-29T22:18:12.010Z,72.33
2018-06-29T22:20:40.626Z,72.42
2018-06-29T22:23:09.290Z,72.71
2018-06-29T22:25:37.923Z,71.89
2018-06-29T22:28:06.755Z,71.77
2018-06-29T22:30:35.386Z,71.28
2018-06-29T22:33:04.011Z,70.87
2018-06-29T22:35:32.641Z,71.27
2018-06-29T22:38:01.256Z,71.21
2018-06-29T22:40:29.912Z,71.00
2018-06-29T22:42:58.602Z,70.29
2018-06-29T22:45:27.333Z,70.39
2018-06-29T22:47:55.950Z,70.70
2018-06-29T22:50:24.571Z,71.03
2018-06-29T22:52:53.213Z,70.96
2018-06-29T22:55:21.794Z,71.50
2018-06-29T22:57:50.442Z,71.16
2018-06-29T23:00:19.692Z,71.13
2018-06-29T23:02:48.340Z,72.19
2018-06-29T23:05:17.327Z,72.01
2018-06-29T23:07:45.918Z,72.34
2018-06-29T23:10:14.550Z,72.85
2018-06-29T23:12:43.165Z,72.75
2018-06-29T23:15:11.864Z,73.01
2018-06-29T23:17:40.508Z,73.05
2018-06-29T23:20:15.128Z,73.46
2018-06-29T23:22:43.747Z,73.08
2018-06-29T23:25:12.399Z,73.11
2018-06-29T23:27:40.994Z,73.83
2018-06-29T23:30:09.687Z,74.06
2018-06-29T23:32:38.310Z,73.68
2018-06-29T23:35:07.026Z,73.30
2018-06-29T23:37:35.687Z,73.36
2018-06-29T23:40:04.787Z,74.09
2018-06-29T23:42:33.446Z,73.28
2018-06-29T23:45:02.048Z,73.72
2018-06-29T23:47:30.693Z,73.55
2018-06-29T23:49:59.369Z,73.54
2018-06-29T23:52:28.024Z,73.41
2018-06-29T23:54:56.650Z,73.61
2018-06-29T23:57:25.285Z,73.56
2018-06-29T23:59:53.936Z,73.59
